createdAt,value
2019-03-22T00:00:42.215Z,14.60
2019-03-22T00:03:12.356Z,14.60
2019-03-22T00:05:42.434Z,14.50
2019-03-22T00:08:12.570Z,14.50
2019-03-22T00:10:42.638Z,14.50
2019-03-22T00:13:12.715Z,14.50
2019-03-22T00:15:42.871Z,14.50
2019-03-22T00:18:12.937Z,14.50
2019-03-22T00:20:43.092Z,14.50
2019-03-22T00:23:13.178Z,14.50
2019-03-22T00:25:43.317Z,14.50
2019-03-22T00:28:13.395Z,14.40
2019-03-22T00:30:43.452Z,14.40
2019-03-22T00:33:13.611Z,14.40
2019-03-22T00:35:43.681Z,14.40
2019-03-22T00:38:13.835Z,14.40
2019-03-22T00:40:44.288Z,14.30
2019-03-22T00:43:14.298Z,14.30
2019-03-22T00:45:44.833Z,14.20
2019-03-22T00:48:15.365Z,14.20
2019-03-22T00:50:45.789Z,14.20
2019-03-22T00:53:15.898Z,14.20
2019-03-22T00:55:46.038Z,14.10
2019-03-22T00:58:16.463Z,14.20
2019-03-22T01:00:46.881Z,14.10
2019-03-22T01:03:17.026Z,14.10
2019-03-22T01:05:47.232Z,14.10
2019-03-22T01:08:17.311Z,14.10
2019-03-22T01:10:47.779Z,14.10
2019-03-22T01:13:17.831Z,14.00
2019-03-22T01:15:48.995Z,14.00
2019-03-22T01:18:19.667Z,14.00
2019-03-22T01:20:49.818Z,14.00
2019-03-22T01:23:19.891Z,14.00
2019-03-22T01:25:50.034Z,13.90
2019-03-22T01:28:20.028Z,13.90
2019-03-22T01:30:50.166Z,13.90
2019-03-22T01:33:20.301Z,13.80
2019-03-22T01:35:50.395Z,13.90
2019-03-22T01:38:20.404Z,13.90
2019-03-22T01:40:50.905Z,13.80
2019-03-22T01:43:20.917Z,13.80
2019-03-22T01:45:50.926Z,13.80
2019-03-22T01:48:21.414Z,13.80
2019-03-22T01:50:51.940Z,13.80
2019-03-22T01:53:22.371Z,13.70
2019-03-22T01:55:52.513Z,13.80
2019-03-22T01:58:22.589Z,13.80
2019-03-22T02:00:52.720Z,13.80
2019-03-22T02:03:22.803Z,13.70
2019-03-22T02:05:53.017Z,13.70
2019-03-22T02:08:23.093Z,13.70
2019-03-22T02:10:53.326Z,13.70
2019-03-22T02:13:23.662Z,13.70
2019-03-22T02:15:53.724Z,13.60
2019-03-22T02:18:24.174Z,13.60
2019-03-22T02:20:54.246Z,13.60
2019-03-22T02:23:24.614Z,13.60
2019-03-22T02:25:54.614Z,13.50
2019-03-22T02:28:25.068Z,13.60
2019-03-22T02:30:55.272Z,13.50
2019-03-22T02:33:25.273Z,13.50
2019-03-22T02:35:55.274Z,13.50
2019-03-22T02:38:25.428Z,13.50
2019-03-22T02:40:55.565Z,13.40
2019-03-22T02:43:25.959Z,13.40
2019-03-22T02:45:56.022Z,13.40
2019-03-22T02:48:26.170Z,13.40
2019-03-22T02:50:56.601Z,13.40
2019-03-22T02:53:27.108Z,13.30
2019-03-22T02:55:57.626Z,13.30
2019-03-22T02:58:27.791Z,13.30
2019-03-22T03:00:57.941Z,13.30
2019-03-22T03:03:28.022Z,13.30
2019-03-22T03:05:59.156Z,13.30
2019-03-22T03:08:31.140Z,13.30
2019-03-22T03:11:01.152Z,13.40
2019-03-22T03:13:31.296Z,13.30
2019-03-22T03:16:01.747Z,13.30
2019-03-22T03:18:31.883Z,13.20
2019-03-22T03:21:02.382Z,13.20
2019-03-22T03:23:33.523Z,13.20
2019-03-22T03:26:03.644Z,13.20
2019-03-22T03:28:37.073Z,13.20
2019-03-22T03:31:06.996Z,13.20
2019-03-22T03:33:37.150Z,13.10
2019-03-22T03:36:07.609Z,13.10
2019-03-22T03:38:37.707Z,13.10
2019-03-22T03:41:07.759Z,13.10
2019-03-22T03:43:37.838Z,13.10
2019-03-22T03:46:08.290Z,13.10
2019-03-22T03:48:38.720Z,13.10
2019-03-22T03:51:08.722Z,13.10
2019-03-22T03:53:39.162Z,13.00
2019-03-22T03:56:09.360Z,13.00
2019-03-22T03:58:51.604Z,13.00
2019-03-22T04:01:11.221Z,13.00
2019-03-22T04:03:41.696Z,13.00
2019-03-22T04:06:12.020Z,13.00
2019-03-22T04:08:42.167Z,13.00
2019-03-22T04:11:12.241Z,13.00
2019-03-22T04:13:42.235Z,12.90
2019-03-22T04:16:12.595Z,12.90
2019-03-22T04:18:43.122Z,12.90
2019-03-22T04:21:13.206Z,12.90
2019-03-22T04:23:44.696Z,12.90
2019-03-22T04:26:14.832Z,12.80
2019-03-22T04:28:45.147Z,12.80
2019-03-22T04:31:16.201Z,12.80
2019-03-22T04:33:46.616Z,12.80
2019-03-22T04:36:16.694Z,12.80
2019-03-22T04:38:46.703Z,12.80
2019-03-22T04:41:16.766Z,12.80
2019-03-22T04:43:47.193Z,12.80
2019-03-22T04:46:18.497Z,12.80
2019-03-22T04:48:49.643Z,12.80
2019-03-22T04:51:20.097Z,12.80
2019-03-22T04:53:53.476Z,12.80
2019-03-22T04:56:25.706Z,12.80
2019-03-22T04:58:57.740Z,12.70
2019-03-22T05:01:29.470Z,12.70
2019-03-22T05:03:59.612Z,12.70
2019-03-22T05:06:30.857Z,12.60
2019-03-22T05:09:01.656Z,12.60
2019-03-22T05:11:32.367Z,12.60
2019-03-22T05:14:03.774Z,12.60
2019-03-22T05:16:38.198Z,12.60
2019-03-22T05:19:10.417Z,12.60
2019-03-22T05:21:41.379Z,12.60
2019-03-22T05:24:12.744Z,12.60
2019-03-22T05:26:43.786Z,12.50
2019-03-22T05:29:14.334Z,12.50
2019-03-22T05:31:59.263Z,12.40
2019-03-22T05:34:29.702Z,12.50
2019-03-22T05:37:00.760Z,12.40
2019-03-22T05:39:30.924Z,12.40
2019-03-22T05:42:01.053Z,12.50
2019-03-22T05:44:31.061Z,12.50
2019-03-22T05:47:01.307Z,12.50
2019-03-22T05:49:31.451Z,12.50
2019-03-22T05:52:01.516Z,12.60
2019-03-22T05:54:31.733Z,12.60
2019-03-22T05:57:12.852Z,12.60
2019-03-22T05:59:42.313Z,12.60
2019-03-22T06:02:08.685Z,12.60
2019-03-22T06:04:38.755Z,12.60
2019-03-22T06:07:08.891Z,12.60
2019-03-22T06:09:39.272Z,12.30
2019-03-22T06:12:09.613Z,11.10
2019-03-22T06:14:39.931Z,10.40
2019-03-22T06:17:10.343Z,10.00
2019-03-22T06:19:40.518Z,9.70
2019-03-22T06:22:10.581Z,9.70
2019-03-22T06:24:40.632Z,9.80
2019-03-22T06:27:11.774Z,9.80
2019-03-22T06:29:53.288Z,9.90
2019-03-22T06:32:13.606Z,9.80
2019-03-22T06:34:43.962Z,9.80
2019-03-22T06:37:14.101Z,9.80
2019-03-22T06:39:44.147Z,9.70
2019-03-22T06:42:14.294Z,9.90
2019-03-22T06:44:44.742Z,9.90
2019-03-22T06:47:14.813Z,10.10
2019-03-22T06:49:44.891Z,10.20
2019-03-22T06:52:14.952Z,10.30
2019-03-22T06:54:45.098Z,10.40
2019-03-22T06:57:15.548Z,10.60
2019-03-22T06:59:45.682Z,10.70
2019-03-22T07:02:16.095Z,10.90
2019-03-22T07:04:46.229Z,11.00
2019-03-22T07:07:16.518Z,11.20
2019-03-22T07:09:46.515Z,11.50
2019-03-22T07:12:16.655Z,12.50
2019-03-22T07:14:47.098Z,16.50
2019-03-22T07:17:17.272Z,18.40
2019-03-22T07:19:47.471Z,20.40
2019-03-22T07:22:17.967Z,22.50
2019-03-22T07:24:48.502Z,23.00
2019-03-22T07:27:18.640Z,23.30
2019-03-22T07:29:49.008Z,23.50
2019-03-22T07:32:19.364Z,23.90
2019-03-22T07:34:49.513Z,24.90
2019-03-22T07:37:19.579Z,25.50
2019-03-22T07:39:50.030Z,26.00
2019-03-22T07:42:20.165Z,26.10
2019-03-22T07:44:50.236Z,25.60
2019-03-22T07:47:20.665Z,26.40
2019-03-22T07:49:51.131Z,26.70
2019-03-22T07:52:21.457Z,27.00
2019-03-22T07:54:51.609Z,27.20
2019-03-22T07:57:21.612Z,27.90
2019-03-22T07:59:51.758Z,27.30
2019-03-22T08:02:21.888Z,27.00
2019-03-22T08:04:52.353Z,27.20
2019-03-22T08:07:22.502Z,27.50
2019-03-22T08:09:52.581Z,28.00
2019-03-22T08:12:22.743Z,28.30
2019-03-22T08:14:52.850Z,28.30
2019-03-22T08:17:22.893Z,28.40
2019-03-22T08:19:53.104Z,28.80
2019-03-22T08:22:23.724Z,28.70
2019-03-22T08:24:53.791Z,29.10
2019-03-22T08:27:23.784Z,29.60
2019-03-22T08:29:53.863Z,29.80
2019-03-22T08:32:24.392Z,29.50
2019-03-22T08:34:54.453Z,29.60
2019-03-22T08:37:24.837Z,30.50
2019-03-22T08:39:56.013Z,30.30
2019-03-22T08:42:26.229Z,30.90
2019-03-22T08:44:56.258Z,31.30
2019-03-22T08:47:33.820Z,31.30
2019-03-22T08:49:58.416Z,31.60
2019-03-22T08:52:28.481Z,31.50
2019-03-22T08:54:58.865Z,31.60
2019-03-22T08:57:28.987Z,32.20
2019-03-22T08:59:59.040Z,32.40
2019-03-22T09:02:29.114Z,32.60
2019-03-22T09:04:59.193Z,32.80
2019-03-22T09:07:29.585Z,33.10
2019-03-22T09:10:00.070Z,33.20
2019-03-22T09:12:30.219Z,33.60
2019-03-22T09:15:00.322Z,33.40
2019-03-22T09:17:30.548Z,33.50
2019-03-22T09:20:01.004Z,33.40
2019-03-22T09:22:31.118Z,34.40
2019-03-22T09:25:01.205Z,34.30
2019-03-22T09:27:31.332Z,34.70
2019-03-22T09:30:01.464Z,35.20
2019-03-22T09:32:31.550Z,35.70
2019-03-22T09:35:01.614Z,36.10
2019-03-22T09:37:31.998Z,37.40
2019-03-22T09:40:02.164Z,38.00
2019-03-22T09:42:32.238Z,37.60
2019-03-22T09:45:02.378Z,37.00
2019-03-22T09:47:32.459Z,36.10
2019-03-22T09:50:02.619Z,36.50
2019-03-22T09:52:33.783Z,37.00
2019-03-22T09:55:13.410Z,37.00
2019-03-22T09:57:37.770Z,36.30
2019-03-22T10:00:11.070Z,36.50
2019-03-22T10:02:41.506Z,36.60
2019-03-22T10:05:11.629Z,36.80
2019-03-22T10:07:41.888Z,36.90
2019-03-22T10:10:11.913Z,37.90
2019-03-22T10:12:42.454Z,38.20
2019-03-22T10:15:12.564Z,38.10
2019-03-22T10:17:42.699Z,37.80
2019-03-22T10:20:13.175Z,38.30
2019-03-22T10:22:43.236Z,38.70
2019-03-22T10:25:13.667Z,38.90
2019-03-22T10:27:43.800Z,39.90
2019-03-22T10:30:18.444Z,39.00
2019-03-22T10:32:48.449Z,38.90
2019-03-22T10:35:26.028Z,38.50
2019-03-22T10:37:50.434Z,38.60
2019-03-22T10:40:20.462Z,39.10
2019-03-22T10:42:50.992Z,38.40
2019-03-22T10:45:22.255Z,38.30
2019-03-22T10:47:52.193Z,38.40
2019-03-22T10:50:22.342Z,38.70
2019-03-22T10:52:52.964Z,39.20
2019-03-22T10:55:29.717Z,39.70
2019-03-22T10:57:55.764Z,39.10
2019-03-22T11:00:27.246Z,39.20
2019-03-22T11:02:57.631Z,39.70
2019-03-22T11:05:27.753Z,40.10
2019-03-22T11:07:57.892Z,40.20
2019-03-22T11:10:28.247Z,40.40
2019-03-22T11:12:58.523Z,40.10
2019-03-22T11:15:28.597Z,40.20
2019-03-22T11:17:58.731Z,40.10
2019-03-22T11:20:28.937Z,40.60
2019-03-22T11:22:59.449Z,39.20
2019-03-22T11:25:29.670Z,34.20
2019-03-22T11:28:00.098Z,30.70
2019-03-22T11:30:30.313Z,28.60
2019-03-22T11:33:00.376Z,27.00
2019-03-22T11:35:30.970Z,25.80
2019-03-22T11:38:02.113Z,24.90
2019-03-22T11:40:32.191Z,24.40
2019-03-22T11:43:08.494Z,24.20
2019-03-22T11:45:34.452Z,24.20
2019-03-22T11:48:04.756Z,23.70
2019-03-22T11:50:35.372Z,23.50
2019-03-22T11:53:05.509Z,23.50
2019-03-22T11:55:35.582Z,23.20
2019-03-22T11:58:05.832Z,22.90
2019-03-22T12:00:36.260Z,22.90
2019-03-22T12:03:06.421Z,22.90
2019-03-22T12:05:40.227Z,23.00
2019-03-22T12:08:08.243Z,22.80
2019-03-22T12:10:38.317Z,22.50
2019-03-22T12:13:08.316Z,22.40
2019-03-22T12:15:38.456Z,22.30
2019-03-22T12:18:09.047Z,22.40
2019-03-22T12:20:39.113Z,22.40
2019-03-22T12:23:09.190Z,22.50
2019-03-22T12:25:39.333Z,22.40
2019-03-22T12:28:09.472Z,22.30
2019-03-22T12:30:39.537Z,22.30
2019-03-22T12:33:10.176Z,22.30
2019-03-22T12:35:42.554Z,22.00
2019-03-22T12:38:12.453Z,22.00
2019-03-22T12:40:42.995Z,21.90
2019-03-22T12:43:13.142Z,21.90
2019-03-22T12:45:43.212Z,21.90
2019-03-22T12:48:13.285Z,22.10
2019-03-22T12:50:43.428Z,22.10
2019-03-22T12:53:13.888Z,21.90
2019-03-22T12:55:44.321Z,22.10
2019-03-22T12:58:14.390Z,22.00
2019-03-22T13:00:44.768Z,22.10
2019-03-22T13:03:15.197Z,22.20
2019-03-22T13:05:45.333Z,22.20
2019-03-22T13:08:15.400Z,22.30
2019-03-22T13:10:45.482Z,22.30
2019-03-22T13:13:15.875Z,22.30
2019-03-22T13:15:45.986Z,22.30
2019-03-22T13:18:16.129Z,22.30
2019-03-22T13:20:46.202Z,22.30
2019-03-22T13:23:16.273Z,22.20
2019-03-22T13:25:46.351Z,22.20
2019-03-22T13:28:16.417Z,22.10
2019-03-22T13:30:46.496Z,22.00
2019-03-22T13:33:16.577Z,22.10
2019-03-22T13:35:47.160Z,21.90
2019-03-22T13:38:17.588Z,21.90
2019-03-22T13:40:47.848Z,21.90
2019-03-22T13:43:18.081Z,21.90
2019-03-22T13:45:49.241Z,21.80
2019-03-22T13:48:19.398Z,21.80
2019-03-22T13:50:49.453Z,21.70
2019-03-22T13:53:19.937Z,21.70
2019-03-22T13:55:50.014Z,21.70
2019-03-22T13:58:20.094Z,21.70
2019-03-22T14:00:50.514Z,21.70
2019-03-22T14:03:20.577Z,21.70
2019-03-22T14:05:50.654Z,21.60
2019-03-22T14:08:20.726Z,21.70
2019-03-22T14:10:50.886Z,21.70
2019-03-22T14:13:21.203Z,21.70
2019-03-22T14:15:51.737Z,21.80
2019-03-22T14:18:22.263Z,21.70
2019-03-22T14:20:52.478Z,21.70
2019-03-22T14:23:22.474Z,21.70
2019-03-22T14:25:52.630Z,21.60
2019-03-22T14:28:22.843Z,21.60
2019-03-22T14:30:53.051Z,21.60
2019-03-22T14:33:23.598Z,21.60
2019-03-22T14:35:53.602Z,21.60
2019-03-22T14:38:23.808Z,21.60
2019-03-22T14:40:53.977Z,21.70
2019-03-22T14:43:24.049Z,21.60
2019-03-22T14:45:54.134Z,21.50
2019-03-22T14:48:24.213Z,21.60
2019-03-22T14:50:54.354Z,21.50
2019-03-22T14:53:25.593Z,21.40
2019-03-22T14:55:56.020Z,21.50
2019-03-22T14:58:26.035Z,21.50
2019-03-22T15:00:56.165Z,21.40
2019-03-22T15:03:27.284Z,21.40
2019-03-22T15:05:57.349Z,21.30
2019-03-22T15:08:27.724Z,21.20
2019-03-22T15:10:57.859Z,21.10
2019-03-22T15:13:29.916Z,21.20
2019-03-22T15:16:17.637Z,21.10
2019-03-22T15:19:05.742Z,21.10
2019-03-22T15:21:46.529Z,21.20
2019-03-22T15:24:20.760Z,21.20
2019-03-22T15:26:52.938Z,21.10
2019-03-22T15:29:41.085Z,21.10
2019-03-22T15:32:15.861Z,21.20
2019-03-22T15:35:05.314Z,21.10
2019-03-22T15:37:46.152Z,21.10
2019-03-22T15:40:16.583Z,21.10
2019-03-22T15:42:46.638Z,21.10
2019-03-22T15:47:46.945Z,21.00
2019-03-22T15:50:17.337Z,20.90
2019-03-22T15:52:47.404Z,20.90
2019-03-22T15:55:17.536Z,20.90
2019-03-22T15:57:47.750Z,20.90
2019-03-22T16:00:18.582Z,20.90
2019-03-22T16:02:48.652Z,20.80
2019-03-22T16:05:18.936Z,20.80
2019-03-22T16:07:49.632Z,20.80
2019-03-22T16:10:19.781Z,20.70
2019-03-22T16:12:49.853Z,20.70
2019-03-22T16:15:20.306Z,20.70
2019-03-22T16:17:50.330Z,20.60
2019-03-22T16:20:20.552Z,20.60
2019-03-22T16:22:50.692Z,20.60
2019-03-22T16:25:22.120Z,20.50
2019-03-22T16:27:52.636Z,20.60
2019-03-22T16:30:22.779Z,20.50
2019-03-22T16:32:52.999Z,20.40
2019-03-22T16:35:23.060Z,20.40
2019-03-22T16:37:53.213Z,20.40
2019-03-22T16:40:24.478Z,20.30
2019-03-22T16:42:54.833Z,20.40
2019-03-22T16:45:39.053Z,20.30
2019-03-22T16:48:10.185Z,20.30
2019-03-22T16:50:40.326Z,20.20
2019-03-22T16:53:10.471Z,20.10
2019-03-22T16:55:40.556Z,20.00
2019-03-22T16:58:10.699Z,19.90
2019-03-22T17:00:40.856Z,19.70
2019-03-22T17:03:10.918Z,19.60
2019-03-22T17:05:41.226Z,19.50
2019-03-22T17:08:11.232Z,19.40
2019-03-22T17:10:41.405Z,19.40
2019-03-22T17:13:11.592Z,19.20
2019-03-22T17:15:41.659Z,19.20
2019-03-22T17:18:11.814Z,19.10
2019-03-22T17:20:41.890Z,19.00
2019-03-22T17:23:12.377Z,18.90
2019-03-22T17:25:42.520Z,18.60
2019-03-22T17:28:12.928Z,18.40
2019-03-22T17:30:43.069Z,18.30
2019-03-22T17:33:13.210Z,18.20
2019-03-22T17:35:43.226Z,18.00
2019-03-22T17:38:13.609Z,17.80
2019-03-22T17:40:43.689Z,17.60
2019-03-22T17:43:13.859Z,17.50
2019-03-22T17:45:43.925Z,17.50
2019-03-22T17:48:13.969Z,17.40
2019-03-22T17:50:43.985Z,17.30
2019-03-22T17:53:14.429Z,17.00
2019-03-22T17:55:44.592Z,16.80
2019-03-22T17:58:14.656Z,16.60
2019-03-22T18:00:45.504Z,16.50
2019-03-22T18:03:17.058Z,16.50
2019-03-22T18:05:47.571Z,16.40
2019-03-22T18:08:17.926Z,16.40
2019-03-22T18:10:48.002Z,16.30
2019-03-22T18:13:18.223Z,16.10
2019-03-22T18:15:48.295Z,16.00
2019-03-22T18:18:18.364Z,16.00
2019-03-22T18:20:48.810Z,15.90
2019-03-22T18:23:19.345Z,15.90
2019-03-22T18:25:49.428Z,15.90
2019-03-22T18:28:21.013Z,15.80
2019-03-22T18:30:51.141Z,15.80
2019-03-22T18:33:21.147Z,15.60
2019-03-22T18:35:51.567Z,15.50
2019-03-22T18:38:21.653Z,15.50
2019-03-22T18:40:51.785Z,15.50
2019-03-22T18:43:22.253Z,15.60
2019-03-22T18:45:52.376Z,15.60
2019-03-22T18:48:22.417Z,15.60
2019-03-22T18:50:56.963Z,15.60
2019-03-22T18:53:26.620Z,15.50
2019-03-22T18:55:56.612Z,15.40
2019-03-22T18:58:27.161Z,15.50
2019-03-22T19:00:57.233Z,15.30
2019-03-22T19:03:27.666Z,15.30
2019-03-22T19:05:57.804Z,15.40
2019-03-22T19:08:28.256Z,15.30
2019-03-22T19:10:58.338Z,15.50
2019-03-22T19:13:30.908Z,15.40
2019-03-22T19:16:00.393Z,15.40
2019-03-22T19:18:32.645Z,15.50
2019-03-22T19:21:02.542Z,15.30
2019-03-22T19:23:32.566Z,15.20
2019-03-22T19:26:02.758Z,15.20
2019-03-22T19:28:32.826Z,15.20
2019-03-22T19:31:02.977Z,15.20
2019-03-22T19:33:33.176Z,15.20
2019-03-22T19:36:03.266Z,15.10
2019-03-22T19:38:33.382Z,15.20
2019-03-22T19:41:03.910Z,15.10
2019-03-22T19:43:33.963Z,15.20
2019-03-22T19:46:04.281Z,15.00
2019-03-22T19:48:34.357Z,14.80
2019-03-22T19:51:04.487Z,14.80
2019-03-22T19:53:34.854Z,14.70
2019-03-22T19:56:05.286Z,14.80
2019-03-22T19:58:35.302Z,14.80
2019-03-22T20:01:05.779Z,14.80
2019-03-22T20:03:35.789Z,14.90
2019-03-22T20:06:05.986Z,14.70
2019-03-22T20:08:37.121Z,14.60
2019-03-22T20:11:07.198Z,14.40
2019-03-22T20:13:37.197Z,14.30
2019-03-22T20:16:07.624Z,14.10
2019-03-22T20:18:37.629Z,14.10
2019-03-22T20:21:07.705Z,14.40
2019-03-22T20:23:37.776Z,14.90
2019-03-22T20:26:07.904Z,15.40
2019-03-22T20:28:38.440Z,15.90
2019-03-22T20:31:08.562Z,16.20
2019-03-22T20:33:39.082Z,16.50
2019-03-22T20:36:09.082Z,16.70
2019-03-22T20:38:39.505Z,16.90
2019-03-22T20:41:10.078Z,17.00
2019-03-22T20:43:40.186Z,17.10
2019-03-22T20:46:10.344Z,17.10
2019-03-22T20:48:40.490Z,17.20
2019-03-22T20:51:10.567Z,17.20
2019-03-22T20:53:40.630Z,17.30
2019-03-22T20:56:10.772Z,17.30
2019-03-22T20:58:41.200Z,17.30
2019-03-22T21:01:11.270Z,17.30
2019-03-22T21:03:41.541Z,17.30
2019-03-22T21:06:12.069Z,17.30
2019-03-22T21:08:42.251Z,17.20
2019-03-22T21:11:12.361Z,17.30
2019-03-22T21:13:43.577Z,17.20
2019-03-22T21:16:13.982Z,17.20
2019-03-22T21:18:44.040Z,17.20
2019-03-22T21:21:14.180Z,17.10
2019-03-22T21:23:44.197Z,17.10
2019-03-22T21:26:14.339Z,17.10
2019-03-22T21:28:44.489Z,17.10
2019-03-22T21:31:14.568Z,17.00
2019-03-22T21:33:45.025Z,17.00
2019-03-22T21:36:15.158Z,17.00
2019-03-22T21:38:45.378Z,17.00
2019-03-22T21:41:15.552Z,17.00
2019-03-22T21:43:46.670Z,16.90
2019-03-22T21:46:17.047Z,17.00
2019-03-22T21:48:47.138Z,17.00
2019-03-22T21:51:17.279Z,16.90
2019-03-22T21:53:47.722Z,16.90
2019-03-22T21:56:18.251Z,16.90
2019-03-22T21:58:48.462Z,16.90
2019-03-22T22:01:18.813Z,16.80
2019-03-22T22:03:49.310Z,16.80
2019-03-22T22:06:19.454Z,16.80
2019-03-22T22:08:49.975Z,16.70
2019-03-22T22:11:20.064Z,16.70
2019-03-22T22:13:50.136Z,16.70
2019-03-22T22:16:20.283Z,16.70
2019-03-22T22:18:50.354Z,16.60
2019-03-22T22:21:20.352Z,16.60
2019-03-22T22:23:50.487Z,16.60
2019-03-22T22:26:20.915Z,16.60
2019-03-22T22:28:51.445Z,16.60
2019-03-22T22:31:21.866Z,16.60
2019-03-22T22:33:51.940Z,16.50
2019-03-22T22:36:22.094Z,16.50
2019-03-22T22:38:54.011Z,16.40
2019-03-22T22:41:24.225Z,16.40
2019-03-22T22:43:55.324Z,16.40
2019-03-22T22:46:25.406Z,16.30
2019-03-22T22:48:55.876Z,16.30
2019-03-22T22:51:26.411Z,16.30
2019-03-22T22:53:56.476Z,16.30
2019-03-22T22:56:26.520Z,16.30
2019-03-22T22:58:56.724Z,16.30
2019-03-22T23:01:26.840Z,16.30
2019-03-22T23:03:56.992Z,16.20
2019-03-22T23:06:28.192Z,16.30
2019-03-22T23:08:58.346Z,16.20
2019-03-22T23:11:28.409Z,16.20
2019-03-22T23:13:58.558Z,16.20
2019-03-22T23:16:28.710Z,16.10
2019-03-22T23:18:58.854Z,16.10
2019-03-22T23:21:28.927Z,16.10
2019-03-22T23:27:11.429Z,16.00
2019-03-22T23:29:41.616Z,16.00
2019-03-22T23:32:11.799Z,16.00
2019-03-22T23:34:41.998Z,16.00
2019-03-22T23:37:12.042Z,16.00
2019-03-22T23:39:42.489Z,15.90
2019-03-22T23:42:12.658Z,15.90
2019-03-22T23:44:42.777Z,15.80
2019-03-22T23:47:12.971Z,15.80
2019-03-22T23:49:43.076Z,15.70
2019-03-22T23:52:13.213Z,15.70
2019-03-22T23:54:43.537Z,15.70
2019-03-22T23:57:13.540Z,15.70
2019-03-22T23:59:43.605Z,15.60
